Time;durP1;ratioP1;P1;durP2;ratioP2;P2;SDS_P1;SDS_P2;PMS_P1;PMS_P2;Temp;Humidity;BMP_temperature;BMP_pressure;BME280_temperature;BME280_humidity;BME280_pressure;Samples;Min_cycle;Max_cycle;Signal;HPM_P1;HPM_P2
2024/01/10 06:01:50;;;;;;;;;;;;;;;;;;5356999;23;19951;-41
2024/01/10 06:04:16;;;;;;;;;;;;;;;;;;4970729;28;20285;-41
2024/01/10 06:06:42;;;;;;;;;;;;;;;;;;4969934;28;19948;-41
2024/01/10 06:09:11;;;;;;;;;;;;;;;;;;4971757;28;19969;-41
2024/01/10 06:11:36;;;;;;;;;;;;;;;;;;4971427;28;20014;-41
2024/01/10 06:14:03;;;;;;;;;;;;;;;;;;4971339;28;20541;-41
2024/01/10 06:16:28;;;;;;;;;;;;;;;;;;4971192;28;19914;-41
2024/01/10 06:18:54;;;;;;;;;;;;;;;;;;4971784;28;19917;-41
2024/01/10 06:21:20;;;;;;;;;;;;;;;;;;4971762;28;19910;-41
2024/01/10 06:23:46;;;;;;;;;;;;;;;;;;4972061;28;20420;-42
2024/01/10 06:26:13;;;;;;;;;;;;;;;;;;4971236;28;19911;-41
2024/01/10 06:28:39;;;;;;;;;;;;;;;;;;4971890;28;20387;-41
2024/01/10 06:31:04;;;;;;;;;;;;;;;;;;4970661;28;19910;-42
2024/01/10 06:33:30;;;;;;;;;;;;;;;;;;4971622;28;19918;-42
2024/01/10 06:35:57;;;;;;;;;;;;;;;;;;4971456;28;19910;-42
2024/01/10 06:38:23;;;;;;;;;;;;;;;;;;4971661;28;19941;-42
2024/01/10 06:40:50;;;;;;;;;;;;;;;;;;4971909;28;19957;-42
2024/01/10 06:43:16;;;;;;;;;;;;;;;;;;4971427;28;19937;-42
2024/01/10 06:45:45;;;;;;;;;;;;;;;;;;4971362;28;20371;-42
2024/01/10 06:48:11;;;;;;;;;;;;;;;;;;4971652;28;20363;-40
2024/01/10 06:50:37;;;;;;;;;;;;;;;;;;4971290;28;19910;-41
2024/01/10 06:53:03;;;;;;;;;;;;;;;;;;4971002;28;19910;-41
2024/01/10 06:55:29;;;;;;;;;;;;;;;;;;4970132;28;19961;-40
2024/01/10 06:57:55;;;;;;;;;;;;;;;;;;4964629;28;20328;-41
2024/01/10 07:00:21;;;;;;;;;;;;;;;;;;4966863;28;19910;-41
2024/01/10 07:02:47;;;;;;;;;;;;;;;;;;4970897;28;20396;-41
2024/01/10 07:05:13;;;;;;;;;;;;;;;;;;4969846;28;19914;-41
2024/01/10 07:07:38;;;;;;;;;;;;;;;;;;4971177;28;19910;-41
2024/01/10 07:10:04;;;;;;;;;;;;;;;;;;4970347;28;20420;-41
2024/01/10 07:12:30;;;;;;;;;;;;;;;;;;4970491;28;19921;-41
2024/01/10 07:14:56;;;;;;;;;;;;;;;;;;4971079;28;19912;-41
2024/01/10 07:17:22;;;;;;;;;;;;;;;;;;4970516;28;19918;-41
2024/01/10 07:19:48;;;;;;;;;;;;;;;;;;4970437;28;19996;-42
2024/01/10 07:22:14;;;;;;;;;;;;;;;;;;4973008;28;19958;-41
2024/01/10 07:24:40;;;;;;;;;;;;;;;;;;4974751;28;19918;-42
2024/01/10 07:27:07;;;;;;;;;;;;;;;;;;4974754;28;19910;-41
2024/01/10 07:29:33;;;;;;;;;;;;;;;;;;4973437;28;19914;-42
2024/01/10 07:31:59;;;;;;;;;;;;;;;;;;4970917;28;19930;-41
2024/01/10 07:34:25;;;;;;;;;;;;;;;;;;4973806;28;19925;-41
2024/01/10 07:36:51;;;;;;;;;;;;;;;;;;4975144;28;19914;-41
2024/01/10 07:39:18;;;;;;;;;;;;;;;;;;4972583;28;20274;-41
2024/01/10 07:41:44;;;;;;;;;;;;;;;;;;4971366;28;20278;-41
2024/01/10 07:44:09;;;;;;;;;;;;;;;;;;4974331;28;19914;-41
2024/01/10 07:46:37;;;;;;;;;;;;;;;;;;4972860;28;19918;-42
2024/01/10 07:49:03;;;;;;;;;;;;;;;;;;4974528;28;20511;-41
2024/01/10 07:51:29;;;;;;;;;;;;;;;;;;4968681;28;19914;-41
2024/01/10 07:53:55;;;;;;;;;;;;;;;;;;4975050;28;19961;-41
2024/01/10 07:56:21;;;;;;;;;;;;;;;;;;4975350;28;19917;-41
2024/01/10 07:58:48;;;;;;;;;;;;;;;;;;4972258;28;19914;-41
2024/01/10 08:01:14;;;;;;;;;;;;;;;;;;4973756;28;19929;-41
2024/01/10 08:03:40;;;;;;;;;;;;;;;;;;4974960;28;20392;-41
2024/01/10 08:06:06;;;;;;;;;;;;;;;;;;4974340;28;19914;-42
2024/01/10 08:08:32;;;;;;;;;;;;;;;;;;4973664;28;20053;-41
2024/01/10 08:10:58;;;;;;;;;;;;;;;;;;4973826;28;19936;-41
2024/01/10 08:13:23;;;;;;;;;;;;;;;;;;4973041;28;19918;-41
2024/01/10 08:15:49;;;;;;;;;;;;;;;;;;4961120;28;20413;-41
2024/01/10 08:18:15;;;;;;;;;;;;;;;;;;4958297;28;19920;-42
2024/01/10 08:20:41;;;;;;;;;;;;;;;;;;4970636;28;20000;-41
2024/01/10 08:23:08;;;;;;;;;;;;;;;;;;4968897;28;20448;-42
2024/01/10 08:25:34;;;;;;;;;;;;;;;;;;4964513;28;20391;-42
2024/01/10 08:28:00;;;;;;;;;;;;;;;;;;4973686;28;19914;-41
2024/01/10 08:30:26;;;;;;;;;;;;;;;;;;4970342;28;19914;-42
2024/01/10 08:32:52;;;;;;;;;;;;;;;;;;4966399;28;19914;-42
2024/01/10 08:35:19;;;;;;;;;;;;;;;;;;4967230;28;19918;-41
2024/01/10 08:37:46;;;;;;;;;;;;;;;;;;4973462;28;19921;-41
2024/01/10 08:40:14;;;;;;;;;;;;;;;;;;4971837;28;20270;-42
2024/01/10 08:42:40;;;;;;;;;;;;;;;;;;4973329;28;19914;-42
2024/01/10 08:45:06;;;;;;;;;;;;;;;;;;4970329;28;20329;-42
2024/01/10 08:47:32;;;;;;;;;;;;;;;;;;4972871;28;20005;-42
2024/01/10 08:49:58;;;;;;;;;;;;;;;;;;4969865;28;19960;-42
2024/01/10 08:52:24;;;;;;;;;;;;;;;;;;4971669;28;19918;-42
2024/01/10 08:54:50;;;;;;;;;;;;;;;;;;4970920;28;19972;-42
2024/01/10 08:57:15;;;;;;;;;;;;;;;;;;4972061;28;20102;-41
2024/01/10 08:59:42;;;;;;;;;;;;;;;;;;4972627;28;19994;-41
2024/01/10 09:02:08;;;;;;;;;;;;;;;;;;4968090;28;19925;-41
2024/01/10 09:04:33;;;;;;;;;;;;;;;;;;4969551;28;20401;-41
2024/01/10 09:06:59;;;;;;;;;;;;;;;;;;4970947;28;19910;-41
2024/01/10 09:09:25;;;;;;;;;;;;;;;;;;4972139;28;19922;-41
2024/01/10 09:11:51;;;;;;;;;;;;;;;;;;4970762;28;19914;-41
2024/01/10 09:14:17;;;;;;;;;;;;;;;;;;4970922;28;20381;-42
2024/01/10 09:16:43;;;;;;;;;;;;;;;;;;4970569;28;19965;-42
2024/01/10 09:19:09;;;;;;;;;;;;;;;;;;4972095;28;19957;-42
2024/01/10 09:21:35;;;;;;;;;;;;;;;;;;4969745;28;20348;-41
2024/01/10 09:24:04;;;;;;;;;;;;;;;;;;4970774;28;19926;-42
2024/01/10 09:26:31;;;;;;;;;;;;;;;;;;4968877;28;20289;-41
2024/01/10 09:28:56;;;;;;;;;;;;;;;;;;4971782;28;19955;-41
2024/01/10 09:31:22;;;;;;;;;;;;;;;;;;4970384;28;19929;-41
2024/01/10 09:33:48;;;;;;;;;;;;;;;;;;4969569;28;20454;-41
2024/01/10 09:36:14;;;;;;;;;;;;;;;;;;4964267;28;19929;-41
2024/01/10 09:38:40;;;;;;;;;;;;;;;;;;4953743;28;19910;-41
2024/01/10 09:41:06;;;;;;;;;;;;;;;;;;4968098;28;20321;-42
2024/01/10 09:43:35;;;;;;;;;;;;;;;;;;4973047;28;19949;-41
2024/01/10 09:46:02;;;;;;;;;;;;;;;;;;4966321;28;19914;-41
2024/01/10 09:48:28;;;;;;;;;;;;;;;;;;4972457;28;20292;-41
2024/01/10 09:50:54;;;;;;;;;;;;;;;;;;4969884;28;19914;-41
2024/01/10 09:53:19;;;;;;;;;;;;;;;;;;4962308;28;19985;-41
2024/01/10 09:55:45;;;;;;;;;;;;;;;;;;4968209;28;19925;-41
2024/01/10 09:58:11;;;;;;;;;;;;;;;;;;4972567;28;20336;-41
2024/01/10 10:00:37;;;;;;;;;;;;;;;;;;4969506;28;19981;-41
2024/01/10 10:03:03;;;;;;;;;;;;;;;;;;4971230;28;19921;-41
2024/01/10 10:05:29;;;;;;;;;;;;;;;;;;4967446;28;20009;-41
2024/01/10 10:07:55;;;;;;;;;;;;;;;;;;4971456;28;20002;-41
2024/01/10 10:10:21;;;;;;;;;;;;;;;;;;4970579;28;20292;-41
2024/01/10 10:12:47;;;;;;;;;;;;;;;;;;4971594;28;20009;-41
2024/01/10 10:15:13;;;;;;;;;;;;;;;;;;4969312;28;19920;-41
2024/01/10 10:17:45;;;;;;;;;;;;;;;;;;4970540;28;19910;-41
2024/01/10 10:20:13;;;;;;;;;;;;;;;;;;4969755;28;19920;-41
2024/01/10 10:22:39;;;;;;;;;;;;;;;;;;4970392;28;19910;-41
2024/01/10 10:25:05;;;;;;;;;;;;;;;;;;4969318;28;20013;-41
2024/01/10 10:27:31;;;;;;;;;;;;;;;;;;4970448;28;19910;-41
2024/01/10 10:29:56;;;;;;;;;;;;;;;;;;4965736;28;19910;-41
2024/01/10 10:32:22;;;;;;;;;;;;;;;;;;4970621;28;19910;-41
2024/01/10 10:34:48;;;;;;;;;;;;;;;;;;4969500;28;19910;-41
2024/01/10 10:37:14;;;;;;;;;;;;;;;;;;4970078;28;20376;-41
2024/01/10 10:39:41;;;;;;;;;;;;;;;;;;4970020;28;19914;-41
2024/01/10 10:42:07;;;;;;;;;;;;;;;;;;4973664;28;20057;-41
2024/01/10 10:44:33;;;;;;;;;;;;;;;;;;4969455;28;20526;-42
2024/01/10 10:46:59;;;;;;;;;;;;;;;;;;4971320;28;19910;-41
2024/01/10 10:49:25;;;;;;;;;;;;;;;;;;4971732;28;19958;-41
2024/01/10 10:51:51;;;;;;;;;;;;;;;;;;4971423;28;20296;-42
2024/01/10 10:54:18;;;;;;;;;;;;;;;;;;4971369;28;19915;-41
2024/01/10 10:56:43;;;;;;;;;;;;;;;;;;4972512;28;19964;-41
2024/01/10 10:59:09;;;;;;;;;;;;;;;;;;4975316;28;19914;-41
2024/01/10 11:01:35;;;;;;;;;;;;;;;;;;4975142;28;20004;-41
2024/01/10 11:04:01;;;;;;;;;;;;;;;;;;4975210;28;19957;-41
2024/01/10 11:06:27;;;;;;;;;;;;;;;;;;4974974;28;19959;-41
2024/01/10 11:08:53;;;;;;;;;;;;;;;;;;4975442;28;19925;-41
2024/01/10 11:11:19;;;;;;;;;;;;;;;;;;4975054;28;19917;-41
2024/01/10 11:13:45;;;;;;;;;;;;;;;;;;4975148;28;19937;-41
2024/01/10 11:16:11;;;;;;;;;;;;;;;;;;4974979;28;19910;-41
2024/01/10 11:18:38;;;;;;;;;;;;;;;;;;4968610;28;19914;-41
2024/01/10 11:21:04;;;;;;;;;;;;;;;;;;4954400;29;19965;-41
2024/01/10 11:23:30;;;;;;;;;;;;;;;;;;4969460;28;20396;-42
2024/01/10 11:25:55;;;;;;;;;;;;;;;;;;4973821;28;19914;-42
2024/01/10 11:28:22;;;;;;;;;;;;;;;;;;4974270;28;19922;-42
2024/01/10 11:30:51;;;;;;;;;;;;;;;;;;4955786;28;19914;-41
2024/01/10 11:33:18;;;;;;;;;;;;;;;;;;4965296;28;20442;-41
2024/01/10 11:35:44;;;;;;;;;;;;;;;;;;4972375;28;20077;-42
2024/01/10 11:38:10;;;;;;;;;;;;;;;;;;4971620;28;20448;-41
2024/01/10 11:40:36;;;;;;;;;;;;;;;;;;4973222;28;19910;-41
2024/01/10 11:43:02;;;;;;;;;;;;;;;;;;4973542;28;19914;-42
2024/01/10 11:45:28;;;;;;;;;;;;;;;;;;4972793;28;19911;-41
2024/01/10 11:47:53;;;;;;;;;;;;;;;;;;4974280;28;19910;-41
2024/01/10 11:50:21;;;;;;;;;;;;;;;;;;4973321;28;19911;-41
2024/01/10 11:52:46;;;;;;;;;;;;;;;;;;4969596;28;20616;-41
2024/01/10 11:55:13;;;;;;;;;;;;;;;;;;4968710;28;19914;-41
2024/01/10 11:57:38;;;;;;;;;;;;;;;;;;4971682;28;19918;-41
2024/01/10 12:00:06;;;;;;;;;;;;;;;;;;4970719;28;20652;-41
2024/01/10 12:02:32;;;;;;;;;;;;;;;;;;4972923;28;19945;-42
2024/01/10 12:04:58;;;;;;;;;;;;;;;;;;4966353;28;19953;-43
2024/01/10 12:07:25;;;;;;;;;;;;;;;;;;4954545;28;20412;-42
2024/01/10 12:09:51;;;;;;;;;;;;;;;;;;4966845;28;19953;-43
2024/01/10 12:12:17;;;;;;;;;;;;;;;;;;4973161;28;19937;-43
2024/01/10 12:14:46;;;;;;;;;;;;;;;;;;4969297;28;19996;-42
2024/01/10 12:17:11;;;;;;;;;;;;;;;;;;4971209;28;20365;-42
2024/01/10 12:19:38;;;;;;;;;;;;;;;;;;4971718;28;19914;-41
2024/01/10 12:22:05;;;;;;;;;;;;;;;;;;4971838;28;19953;-41
2024/01/10 12:24:31;;;;;;;;;;;;;;;;;;4971786;28;19918;-42
2024/01/10 12:26:57;;;;;;;;;;;;;;;;;;4975749;28;20305;-43
2024/01/10 12:29:25;;;;;;;;;;;;;;;;;;4972002;28;20325;-42
2024/01/10 12:31:50;;;;;;;;;;;;;;;;;;4970241;28;20001;-41
2024/01/10 12:34:16;;;;;;;;;;;;;;;;;;4971617;28;20001;-42
2024/01/10 12:36:43;;;;;;;;;;;;;;;;;;4966411;28;19938;-41
2024/01/10 12:39:09;;;;;;;;;;;;;;;;;;4965670;28;19914;-43
2024/01/10 12:41:35;;;;;;;;;;;;;;;;;;4971207;28;20016;-42
2024/01/10 12:44:04;;;;;;;;;;;;;;;;;;4967687;28;19918;-43
2024/01/10 12:46:31;;;;;;;;;;;;;;;;;;4972349;28;19910;-41
2024/01/10 12:48:57;;;;;;;;;;;;;;;;;;4973241;28;20273;-41
2024/01/10 12:51:22;;;;;;;;;;;;;;;;;;4972422;28;19917;-42
2024/01/10 12:53:48;;;;;;;;;;;;;;;;;;4971450;28;19918;-42
2024/01/10 12:56:14;;;;;;;;;;;;;;;;;;4972315;28;19942;-41
2024/01/10 12:58:41;;;;;;;;;;;;;;;;;;4972175;28;19932;-42
2024/01/10 13:01:07;;;;;;;;;;;;;;;;;;4971299;28;19922;-41
2024/01/10 13:03:32;;;;;;;;;;;;;;;;;;4971244;28;20385;-41
2024/01/10 13:05:58;;;;;;;;;;;;;;;;;;4972973;28;19910;-41
2024/01/10 13:08:24;;;;;;;;;;;;;;;;;;4972349;28;19910;-41
2024/01/10 13:10:50;;;;;;;;;;;;;;;;;;4971157;28;19914;-41
2024/01/10 13:13:21;;;;;;;;;;;;;;;;;;4970972;28;19961;-41
2024/01/10 13:15:47;;;;;;;;;;;;;;;;;;4966649;28;20536;-41
2024/01/10 13:18:14;;;;;;;;;;;;;;;;;;4972108;28;19911;-41
2024/01/10 13:20:40;;;;;;;;;;;;;;;;;;4959119;28;19911;-41
2024/01/10 13:23:06;;;;;;;;;;;;;;;;;;4964423;28;19988;-41
2024/01/10 13:25:32;;;;;;;;;;;;;;;;;;4964868;28;19914;-41
2024/01/10 13:27:58;;;;;;;;;;;;;;;;;;4964887;28;19929;-41
2024/01/10 13:30:23;;;;;;;;;;;;;;;;;;4969376;28;19914;-42
2024/01/10 13:32:49;;;;;;;;;;;;;;;;;;4963185;28;19921;-41
2024/01/10 13:35:18;;;;;;;;;;;;;;;;;;4969866;28;19925;-41
2024/01/10 13:37:44;;;;;;;;;;;;;;;;;;4971234;28;19914;-41
2024/01/10 13:40:12;;;;;;;;;;;;;;;;;;4971547;28;19991;-42
2024/01/10 13:42:38;;;;;;;;;;;;;;;;;;4972197;28;19988;-43
2024/01/10 13:45:05;;;;;;;;;;;;;;;;;;4968305;28;19949;-41
2024/01/10 13:47:31;;;;;;;;;;;;;;;;;;4963808;28;19922;-41
2024/01/10 13:49:56;;;;;;;;;;;;;;;;;;4970561;28;20400;-42
2024/01/10 13:52:22;;;;;;;;;;;;;;;;;;4969023;28;20366;-41
2024/01/10 13:54:48;;;;;;;;;;;;;;;;;;4971506;28;19911;-42
2024/01/10 13:57:14;;;;;;;;;;;;;;;;;;4968397;28;19918;-42
2024/01/10 13:59:41;;;;;;;;;;;;;;;;;;4970438;28;19914;-42
2024/01/10 14:02:08;;;;;;;;;;;;;;;;;;4971166;28;20004;-42
2024/01/10 14:04:34;;;;;;;;;;;;;;;;;;4971163;28;19914;-43
2024/01/10 14:07:00;;;;;;;;;;;;;;;;;;4970443;28;19914;-42
2024/01/10 14:09:26;;;;;;;;;;;;;;;;;;4963938;28;19911;-43
2024/01/10 14:11:51;;;;;;;;;;;;;;;;;;4958856;28;19910;-42
2024/01/10 14:14:18;;;;;;;;;;;;;;;;;;4969921;28;20300;-43
2024/01/10 14:16:44;;;;;;;;;;;;;;;;;;4970335;28;19914;-43
2024/01/10 14:19:09;;;;;;;;;;;;;;;;;;4971553;28;20006;-42
2024/01/10 14:21:35;;;;;;;;;;;;;;;;;;4969952;28;20447;-42
2024/01/10 14:24:01;;;;;;;;;;;;;;;;;;4968451;28;19925;-43
2024/01/10 14:26:27;;;;;;;;;;;;;;;;;;4959451;28;19953;-44
2024/01/10 14:28:55;;;;;;;;;;;;;;;;;;4964278;28;19918;-41
2024/01/10 14:31:21;;;;;;;;;;;;;;;;;;4969836;28;19921;-42
2024/01/10 14:33:47;;;;;;;;;;;;;;;;;;4976349;28;19910;-42
2024/01/10 14:36:13;;;;;;;;;;;;;;;;;;4976255;28;19914;-41
2024/01/10 14:38:39;;;;;;;;;;;;;;;;;;4976889;28;19917;-42
2024/01/10 14:41:06;;;;;;;;;;;;;;;;;;4975436;28;19922;-41
2024/01/10 14:43:32;;;;;;;;;;;;;;;;;;4964798;28;19918;-41
2024/01/10 14:45:58;;;;;;;;;;;;;;;;;;4972254;28;19933;-41
2024/01/10 14:48:24;;;;;;;;;;;;;;;;;;4966330;28;19961;-41
2024/01/10 14:50:50;;;;;;;;;;;;;;;;;;4975498;28;20382;-41
2024/01/10 14:53:16;;;;;;;;;;;;;;;;;;4965872;28;19910;-41
2024/01/10 14:55:42;;;;;;;;;;;;;;;;;;4976481;28;20301;-41
2024/01/10 14:58:08;;;;;;;;;;;;;;;;;;4976101;28;19926;-40
2024/01/10 15:00:34;;;;;;;;;;;;;;;;;;4967970;28;19914;-41
2024/01/10 15:03:00;;;;;;;;;;;;;;;;;;4958012;28;19915;-41
2024/01/10 15:05:26;;;;;;;;;;;;;;;;;;4963086;28;19910;-40
2024/01/10 15:07:52;;;;;;;;;;;;;;;;;;4976784;28;20176;-41
2024/01/10 15:10:18;;;;;;;;;;;;;;;;;;4978935;28;20013;-41
2024/01/10 15:12:44;;;;;;;;;;;;;;;;;;4984890;28;19921;-41
2024/01/10 15:15:10;;;;;;;;;;;;;;;;;;4975421;28;20352;-41
2024/01/10 15:17:36;;;;;;;;;;;;;;;;;;4964707;28;20396;-41
2024/01/10 15:20:02;;;;;;;;;;;;;;;;;;4975968;28;19910;-41
2024/01/10 15:22:28;;;;;;;;;;;;;;;;;;4964197;28;19933;-41
2024/01/10 15:24:54;;;;;;;;;;;;;;;;;;4962645;28;19960;-41
2024/01/10 15:27:20;;;;;;;;;;;;;;;;;;4976685;28;20296;-41
2024/01/10 15:29:46;;;;;;;;;;;;;;;;;;4975323;28;19917;-41
2024/01/10 15:32:12;;;;;;;;;;;;;;;;;;4979896;28;19921;-41
2024/01/10 15:34:38;;;;;;;;;;;;;;;;;;4974446;28;20289;-41
2024/01/10 15:37:04;;;;;;;;;;;;;;;;;;4976707;28;19910;-41
2024/01/10 15:39:30;;;;;;;;;;;;;;;;;;4976581;28;19918;-41
2024/01/10 15:41:56;;;;;;;;;;;;;;;;;;4976695;28;19941;-41
2024/01/10 15:44:21;;;;;;;;;;;;;;;;;;4974150;28;19965;-41
2024/01/10 15:46:47;;;;;;;;;;;;;;;;;;4973879;28;19914;-41
2024/01/10 15:49:13;;;;;;;;;;;;;;;;;;4973048;28;19981;-41
2024/01/10 15:51:40;;;;;;;;;;;;;;;;;;4971950;28;19933;-41
2024/01/10 15:54:06;;;;;;;;;;;;;;;;;;4972711;28;19910;-41
2024/01/10 15:56:33;;;;;;;;;;;;;;;;;;4972624;28;19910;-41
2024/01/10 15:58:59;;;;;;;;;;;;;;;;;;4972598;28;19910;-41
2024/01/10 16:01:25;;;;;;;;;;;;;;;;;;4972969;28;19922;-41
2024/01/10 16:03:51;;;;;;;;;;;;;;;;;;4972726;28;19914;-41
2024/01/10 16:06:17;;;;;;;;;;;;;;;;;;4972314;28;19914;-42
2024/01/10 16:08:42;;;;;;;;;;;;;;;;;;4972410;28;20397;-41
2024/01/10 16:11:08;;;;;;;;;;;;;;;;;;4972119;28;19964;-42
2024/01/10 16:13:34;;;;;;;;;;;;;;;;;;4972459;28;19933;-42
2024/01/10 16:16:04;;;;;;;;;;;;;;;;;;4972236;28;19917;-42
2024/01/10 16:18:30;;;;;;;;;;;;;;;;;;4972423;28;19910;-41
2024/01/10 16:20:56;;;;;;;;;;;;;;;;;;4973067;28;20288;-41
2024/01/10 16:23:21;;;;;;;;;;;;;;;;;;4972731;28;19914;-42
2024/01/10 16:25:47;;;;;;;;;;;;;;;;;;4972347;28;19910;-41
2024/01/10 16:28:13;;;;;;;;;;;;;;;;;;4971926;28;19910;-41
2024/01/10 16:30:39;;;;;;;;;;;;;;;;;;4971858;28;19952;-41
2024/01/10 16:33:05;;;;;;;;;;;;;;;;;;4971907;28;19914;-41
2024/01/10 16:35:31;;;;;;;;;;;;;;;;;;4971883;28;20401;-41
2024/01/10 16:37:57;;;;;;;;;;;;;;;;;;4962737;28;20005;-41
2024/01/10 16:40:23;;;;;;;;;;;;;;;;;;4953027;29;19911;-42
2024/01/10 16:42:49;;;;;;;;;;;;;;;;;;4957109;28;19914;-41
2024/01/10 16:45:14;;;;;;;;;;;;;;;;;;4972136;28;19914;-41
2024/01/10 16:47:40;;;;;;;;;;;;;;;;;;4971865;28;19917;-42
2024/01/10 16:50:07;;;;;;;;;;;;;;;;;;4972085;28;20350;-41
2024/01/10 16:52:33;;;;;;;;;;;;;;;;;;4972067;28;19914;-48
2024/01/10 16:54:59;;;;;;;;;;;;;;;;;;4970857;28;19973;-46
2024/01/10 16:57:25;;;;;;;;;;;;;;;;;;4972850;28;19921;-50
2024/01/10 16:59:51;;;;;;;;;;;;;;;;;;4972359;28;19933;-46
2024/01/10 17:02:17;;;;;;;;;;;;;;;;;;4972290;28;20004;-49
2024/01/10 17:04:42;;;;;;;;;;;;;;;;;;4972095;28;19965;-47
2024/01/10 17:07:09;;;;;;;;;;;;;;;;;;4972023;28;19910;-46
2024/01/10 17:09:34;;;;;;;;;;;;;;;;;;4971765;28;19910;-45
2024/01/10 17:12:00;;;;;;;;;;;;;;;;;;4971057;28;19988;-45
2024/01/10 17:14:26;;;;;;;;;;;;;;;;;;4972583;28;19920;-45
2024/01/10 17:16:52;;;;;;;;;;;;;;;;;;4966651;28;19914;-46
2024/01/10 17:19:18;;;;;;;;;;;;;;;;;;4952372;29;19957;-47
2024/01/10 17:21:44;;;;;;;;;;;;;;;;;;4963428;28;19911;-50
2024/01/10 17:24:11;;;;;;;;;;;;;;;;;;4971917;28;19960;-45
2024/01/10 17:26:37;;;;;;;;;;;;;;;;;;4971753;28;19910;-47
2024/01/10 17:29:04;;;;;;;;;;;;;;;;;;4971661;28;20351;-46
2024/01/10 17:31:30;;;;;;;;;;;;;;;;;;4971475;28;20009;-46
2024/01/10 17:33:56;;;;;;;;;;;;;;;;;;4971320;28;19946;-46
2024/01/10 17:36:23;;;;;;;;;;;;;;;;;;4971518;28;19914;-45
2024/01/10 17:38:49;;;;;;;;;;;;;;;;;;4965717;28;19917;-45
2024/01/10 17:41:15;;;;;;;;;;;;;;;;;;4971436;28;19914;-46
2024/01/10 17:43:41;;;;;;;;;;;;;;;;;;4970737;28;19920;-46
2024/01/10 17:46:07;;;;;;;;;;;;;;;;;;4970643;28;19936;-46
2024/01/10 17:48:32;;;;;;;;;;;;;;;;;;4968327;28;19976;-47
2024/01/10 17:50:58;;;;;;;;;;;;;;;;;;4968079;28;20036;-46
2024/01/10 17:53:24;;;;;;;;;;;;;;;;;;4959331;28;19910;-46
2024/01/10 17:55:50;;;;;;;;;;;;;;;;;;4968799;28;19918;-47
2024/01/10 17:58:16;;;;;;;;;;;;;;;;;;4970890;28;20538;-46
2024/01/10 18:00:42;;;;;;;;;;;;;;;;;;4965813;28;19918;-47
2024/01/10 18:03:08;;;;;;;;;;;;;;;;;;4967303;28;19918;-46
2024/01/10 18:05:34;;;;;;;;;;;;;;;;;;4961599;28;19949;-45
2024/01/10 18:08:00;;;;;;;;;;;;;;;;;;4969157;28;19949;-46
2024/01/10 18:10:26;;;;;;;;;;;;;;;;;;4964128;28;19954;-46
2024/01/10 18:12:54;;;;;;;;;;;;;;;;;;4951463;29;19957;-45
2024/01/10 18:15:20;;;;;;;;;;;;;;;;;;4962807;28;19914;-45
2024/01/10 18:17:46;;;;;;;;;;;;;;;;;;4969408;28;20016;-48
2024/01/10 18:20:12;;;;;;;;;;;;;;;;;;4970014;28;19911;-45
2024/01/10 18:22:38;;;;;;;;;;;;;;;;;;4970032;28;20422;-45
2024/01/10 18:25:04;;;;;;;;;;;;;;;;;;4961404;28;19926;-46
2024/01/10 18:27:30;;;;;;;;;;;;;;;;;;4963663;28;20412;-45
2024/01/10 18:29:56;;;;;;;;;;;;;;;;;;4967797;28;20021;-48
2024/01/10 18:32:22;;;;;;;;;;;;;;;;;;4970499;28;19910;-47
2024/01/10 18:34:47;;;;;;;;;;;;;;;;;;4967542;28;19961;-46
2024/01/10 18:37:13;;;;;;;;;;;;;;;;;;4969164;28;19921;-47
2024/01/10 18:39:39;;;;;;;;;;;;;;;;;;4965859;28;19957;-44
2024/01/10 18:42:06;;;;;;;;;;;;;;;;;;4968806;28;19921;-46
2024/01/10 18:44:32;;;;;;;;;;;;;;;;;;4963633;28;19918;-47
2024/01/10 18:46:58;;;;;;;;;;;;;;;;;;4962774;28;20413;-46
2024/01/10 18:49:24;;;;;;;;;;;;;;;;;;4969560;28;19914;-46
2024/01/10 18:51:49;;;;;;;;;;;;;;;;;;4960743;28;20378;-47
2024/01/10 18:54:15;;;;;;;;;;;;;;;;;;4959025;28;19921;-48
2024/01/10 18:56:41;;;;;;;;;;;;;;;;;;4964756;28;20396;-48
2024/01/10 18:59:07;;;;;;;;;;;;;;;;;;4965063;28;20005;-47
2024/01/10 19:01:33;;;;;;;;;;;;;;;;;;4961257;28;19929;-46
2024/01/10 19:03:59;;;;;;;;;;;;;;;;;;4957860;28;19918;-46
2024/01/10 19:06:25;;;;;;;;;;;;;;;;;;4963231;28;19918;-48
2024/01/10 19:08:51;;;;;;;;;;;;;;;;;;4963511;28;19940;-46
2024/01/10 19:11:19;;;;;;;;;;;;;;;;;;4960504;28;21349;-46
2024/01/10 19:13:48;;;;;;;;;;;;;;;;;;4960797;28;19997;-48
2024/01/10 19:16:14;;;;;;;;;;;;;;;;;;4964580;28;19914;-46
2024/01/10 19:18:40;;;;;;;;;;;;;;;;;;4964968;28;19921;-48
2024/01/10 19:21:08;;;;;;;;;;;;;;;;;;4963946;28;19922;-46
2024/01/10 19:23:33;;;;;;;;;;;;;;;;;;4967166;28;19980;-47
2024/01/10 19:25:59;;;;;;;;;;;;;;;;;;4970026;28;19942;-46
2024/01/10 19:28:25;;;;;;;;;;;;;;;;;;4965361;28;19922;-46
2024/01/10 19:30:51;;;;;;;;;;;;;;;;;;4965390;28;20339;-46
2024/01/10 19:33:17;;;;;;;;;;;;;;;;;;4966061;28;19965;-48
2024/01/10 19:35:43;;;;;;;;;;;;;;;;;;4961871;28;20424;-46
2024/01/10 19:38:09;;;;;;;;;;;;;;;;;;4963489;28;19914;-48
2024/01/10 19:40:38;;;;;;;;;;;;;;;;;;4967479;28;19922;-46
2024/01/10 19:43:04;;;;;;;;;;;;;;;;;;4961097;28;20005;-46
2024/01/10 19:45:30;;;;;;;;;;;;;;;;;;4965769;28;20009;-46
2024/01/10 19:47:57;;;;;;;;;;;;;;;;;;4969772;28;20432;-46
2024/01/10 19:50:23;;;;;;;;;;;;;;;;;;4969274;28;19914;-46
2024/01/10 19:52:51;;;;;;;;;;;;;;;;;;4971648;28;19917;-46
2024/01/10 19:55:17;;;;;;;;;;;;;;;;;;4967162;28;19918;-46
2024/01/10 19:57:43;;;;;;;;;;;;;;;;;;4959106;28;19944;-47
2024/01/10 20:00:08;;;;;;;;;;;;;;;;;;4968518;28;19914;-45
2024/01/10 20:02:34;;;;;;;;;;;;;;;;;;4969367;28;19957;-46
2024/01/10 20:05:00;;;;;;;;;;;;;;;;;;4969336;28;19948;-47
2024/01/10 20:07:26;;;;;;;;;;;;;;;;;;4968772;28;19922;-45
2024/01/10 20:09:52;;;;;;;;;;;;;;;;;;4969418;28;19949;-45
2024/01/10 20:12:18;;;;;;;;;;;;;;;;;;4968965;28;19914;-46
2024/01/10 20:14:44;;;;;;;;;;;;;;;;;;4969361;28;19914;-49
2024/01/10 20:17:10;;;;;;;;;;;;;;;;;;4969440;28;19921;-47
2024/01/10 20:19:36;;;;;;;;;;;;;;;;;;4968448;28;19914;-48
2024/01/10 20:22:01;;;;;;;;;;;;;;;;;;4971129;28;19918;-50
2024/01/10 20:24:27;;;;;;;;;;;;;;;;;;4968661;28;19925;-49
2024/01/10 20:26:53;;;;;;;;;;;;;;;;;;4970785;28;20388;-46
2024/01/10 20:29:19;;;;;;;;;;;;;;;;;;4968593;28;20008;-47
2024/01/10 20:31:45;;;;;;;;;;;;;;;;;;4969561;28;20381;-46
2024/01/10 20:34:11;;;;;;;;;;;;;;;;;;4968030;28;19914;-47
2024/01/10 20:36:38;;;;;;;;;;;;;;;;;;4968154;28;19945;-48
2024/01/10 20:39:04;;;;;;;;;;;;;;;;;;4969091;28;20049;-47
2024/01/10 20:41:30;;;;;;;;;;;;;;;;;;4969762;28;21064;-46
2024/01/10 20:43:56;;;;;;;;;;;;;;;;;;4969300;28;19926;-46
2024/01/10 20:46:22;;;;;;;;;;;;;;;;;;4969235;28;20389;-48
2024/01/10 20:48:49;;;;;;;;;;;;;;;;;;4965794;28;19914;-46
2024/01/10 20:51:15;;;;;;;;;;;;;;;;;;4966538;28;19918;-48
2024/01/10 20:53:40;;;;;;;;;;;;;;;;;;4968284;28;19914;-47
2024/01/10 20:56:06;;;;;;;;;;;;;;;;;;4966408;28;19925;-47
2024/01/10 20:58:32;;;;;;;;;;;;;;;;;;4965697;28;19981;-49
2024/01/10 21:00:58;;;;;;;;;;;;;;;;;;4965531;28;20401;-47
2024/01/10 21:03:29;;;;;;;;;;;;;;;;;;4969148;28;19979;-47
2024/01/10 21:05:55;;;;;;;;;;;;;;;;;;4968292;28;20362;-48
2024/01/10 21:08:21;;;;;;;;;;;;;;;;;;4968261;28;19982;-47
2024/01/10 21:10:47;;;;;;;;;;;;;;;;;;4968094;28;19921;-49
2024/01/10 21:13:12;;;;;;;;;;;;;;;;;;4966884;28;19910;-45
2024/01/10 21:15:38;;;;;;;;;;;;;;;;;;4967304;28;19925;-48
2024/01/10 21:18:04;;;;;;;;;;;;;;;;;;4959355;28;20381;-50
2024/01/10 21:20:30;;;;;;;;;;;;;;;;;;4957654;28;19960;-49
2024/01/10 21:22:56;;;;;;;;;;;;;;;;;;4967964;28;19910;-48
2024/01/10 21:25:22;;;;;;;;;;;;;;;;;;4968160;28;19914;-47
2024/01/10 21:27:48;;;;;;;;;;;;;;;;;;4967225;28;19910;-47
2024/01/10 21:30:14;;;;;;;;;;;;;;;;;;4967080;28;19921;-46
2024/01/10 21:32:40;;;;;;;;;;;;;;;;;;4962231;28;19917;-48
2024/01/10 21:35:06;;;;;;;;;;;;;;;;;;4963128;28;20297;-46
2024/01/10 21:37:31;;;;;;;;;;;;;;;;;;4967983;28;19961;-46
2024/01/10 21:39:57;;;;;;;;;;;;;;;;;;4966750;28;20293;-47
2024/01/10 21:42:25;;;;;;;;;;;;;;;;;;4967629;28;20062;-48
2024/01/10 21:44:51;;;;;;;;;;;;;;;;;;4965995;28;20369;-47
2024/01/10 21:47:17;;;;;;;;;;;;;;;;;;4963690;28;19965;-50
2024/01/10 21:49:43;;;;;;;;;;;;;;;;;;4966787;28;19933;-49
2024/01/10 21:52:09;;;;;;;;;;;;;;;;;;4966797;28;19914;-49
2024/01/10 21:54:34;;;;;;;;;;;;;;;;;;4965296;28;20090;-47
2024/01/10 21:57:00;;;;;;;;;;;;;;;;;;4965931;28;20514;-46
2024/01/10 21:59:26;;;;;;;;;;;;;;;;;;4963230;28;19989;-46
2024/01/10 22:01:52;;;;;;;;;;;;;;;;;;4967611;28;20425;-46
2024/01/10 22:04:18;;;;;;;;;;;;;;;;;;4966038;28;19921;-46
2024/01/10 22:06:44;;;;;;;;;;;;;;;;;;4967067;28;19933;-47
2024/01/10 22:09:10;;;;;;;;;;;;;;;;;;4966993;28;19914;-48
2024/01/10 22:11:36;;;;;;;;;;;;;;;;;;4967996;28;20001;-47
2024/01/10 22:14:02;;;;;;;;;;;;;;;;;;4967949;28;19910;-47
2024/01/10 22:16:28;;;;;;;;;;;;;;;;;;4967743;28;19917;-47
2024/01/10 22:18:54;;;;;;;;;;;;;;;;;;4967397;28;20297;-46
2024/01/10 22:21:20;;;;;;;;;;;;;;;;;;4965290;28;19914;-46
2024/01/10 22:23:45;;;;;;;;;;;;;;;;;;4966076;28;19925;-48
2024/01/10 22:26:11;;;;;;;;;;;;;;;;;;4967464;28;19953;-47
2024/01/10 22:28:37;;;;;;;;;;;;;;;;;;4967085;28;19911;-46
2024/01/10 22:31:03;;;;;;;;;;;;;;;;;;4967731;28;20388;-49
2024/01/10 22:33:29;;;;;;;;;;;;;;;;;;4966984;28;19918;-48
2024/01/10 22:35:55;;;;;;;;;;;;;;;;;;4968229;28;19914;-46
2024/01/10 22:38:21;;;;;;;;;;;;;;;;;;4968181;28;19911;-47